createdAt,value
2022-11-20T00:02:16.518Z,0.77
2022-11-20T00:04:45.612Z,0.71
2022-11-20T00:07:13.178Z,0.66
2022-11-20T00:09:40.315Z,0.65
2022-11-20T00:12:07.625Z,0.59
2022-11-20T00:14:35.072Z,0.62
2022-11-20T00:17:02.081Z,0.57
2022-11-20T00:19:28.989Z,0.58
2022-11-20T00:21:57.480Z,0.64
2022-11-20T00:24:24.829Z,0.66
2022-11-20T00:26:51.805Z,0.64
2022-11-20T00:29:19.327Z,0.63
2022-11-20T00:31:47.407Z,0.69
2022-11-20T00:34:14.527Z,0.72
2022-11-20T00:36:42.100Z,0.74
2022-11-20T00:39:10.587Z,0.77
2022-11-20T00:41:37.819Z,0.77
2022-11-20T00:44:06.282Z,0.80
2022-11-20T00:46:33.470Z,0.82
2022-11-20T00:49:00.924Z,0.87
2022-11-20T00:51:29.116Z,0.89
2022-11-20T00:53:57.960Z,0.91
2022-11-20T00:56:27.490Z,0.97
2022-11-20T00:58:54.555Z,0.98
2022-11-20T01:01:24.529Z,1.01
2022-11-20T01:03:53.752Z,1.01
2022-11-20T01:06:23.531Z,1.02
2022-11-20T01:08:52.679Z,1.01
2022-11-20T01:11:22.433Z,1.01
2022-11-20T01:13:52.789Z,1.05
2022-11-20T01:16:22.054Z,1.01
2022-11-20T01:18:51.783Z,1.03
2022-11-20T01:21:21.478Z,1.03
2022-11-20T01:23:50.242Z,1.05
2022-11-20T01:26:20.671Z,1.11
2022-11-20T01:28:48.310Z,1.08
2022-11-20T01:31:19.245Z,1.08
2022-11-20T01:33:47.837Z,1.05
2022-11-20T01:36:16.285Z,1.04
2022-11-20T01:38:44.135Z,1.05
2022-11-20T01:41:13.015Z,1.05
2022-11-20T01:43:40.031Z,1.06
2022-11-20T01:46:17.878Z,1.05
2022-11-20T01:48:51.382Z,1.00
2022-11-20T01:51:26.398Z,0.92
2022-11-20T01:53:58.054Z,0.85
2022-11-20T01:56:26.484Z,0.83
2022-11-20T01:58:59.668Z,0.80
2022-11-20T02:01:28.622Z,0.77
2022-11-20T02:03:55.725Z,0.79
2022-11-20T02:06:27.063Z,0.83
2022-11-20T02:08:56.159Z,0.87
2022-11-20T02:11:24.338Z,0.84
2022-11-20T02:13:51.908Z,0.78
2022-11-20T02:16:24.838Z,0.82
2022-11-20T02:18:55.372Z,0.76
2022-11-20T02:21:31.468Z,0.75
2022-11-20T02:24:12.655Z,0.73
2022-11-20T02:26:46.386Z,0.73
2022-11-20T02:29:15.041Z,0.75
2022-11-20T02:31:44.812Z,0.71
2022-11-20T02:34:11.805Z,0.70
2022-11-20T02:36:42.421Z,0.69
2022-11-20T02:39:14.523Z,0.71
2022-11-20T02:41:41.478Z,0.76
2022-11-20T02:44:08.800Z,0.79
2022-11-20T02:46:36.471Z,0.83
2022-11-20T02:49:05.153Z,0.87
2022-11-20T02:51:33.287Z,0.89
2022-11-20T02:54:01.155Z,0.93
2022-11-20T02:56:30.573Z,0.94
2022-11-20T02:58:58.107Z,0.96
2022-11-20T03:01:25.657Z,0.97
2022-11-20T03:03:53.094Z,0.97
2022-11-20T03:06:20.983Z,0.96
2022-11-20T03:08:47.886Z,0.98
2022-11-20T03:11:16.014Z,0.98
2022-11-20T03:13:45.118Z,0.97
2022-11-20T03:16:14.916Z,0.91
2022-11-20T03:18:43.034Z,0.79
2022-11-20T03:21:11.884Z,0.70
2022-11-20T03:23:40.674Z,0.67
2022-11-20T03:26:14.601Z,0.71
2022-11-20T03:28:49.239Z,0.74
2022-11-20T03:31:17.937Z,0.77
2022-11-20T03:33:45.768Z,0.82
2022-11-20T03:36:15.518Z,0.83
2022-11-20T03:38:43.363Z,0.82
2022-11-20T03:41:12.488Z,0.85
2022-11-20T03:43:40.319Z,0.87
2022-11-20T03:46:09.498Z,0.87
2022-11-20T03:48:36.969Z,0.89
2022-11-20T03:51:11.614Z,0.90
2022-11-20T03:53:39.828Z,0.83
2022-11-20T03:56:08.488Z,0.75
2022-11-20T03:58:36.322Z,0.77
2022-11-20T04:01:10.539Z,0.77
2022-11-20T04:03:39.469Z,0.79
2022-11-20T04:06:08.831Z,0.84
2022-11-20T04:08:36.591Z,0.88
2022-11-20T04:11:12.485Z,0.87
2022-11-20T04:13:40.675Z,0.87
2022-11-20T04:16:10.746Z,0.88
2022-11-20T04:18:38.896Z,0.92
2022-11-20T04:21:07.684Z,0.97
2022-11-20T04:23:35.866Z,1.02
2022-11-20T04:26:05.287Z,1.02
2022-11-20T04:28:32.810Z,1.06
2022-11-20T04:31:05.777Z,1.07
2022-11-20T04:33:35.202Z,1.11
2022-11-20T04:36:04.667Z,1.13
2022-11-20T04:38:31.653Z,1.10
2022-11-20T04:40:59.987Z,1.12
2022-11-20T04:43:27.195Z,1.08
2022-11-20T04:45:55.174Z,1.11
2022-11-20T04:48:22.588Z,1.10
2022-11-20T04:50:51.134Z,1.13
2022-11-20T04:53:19.550Z,1.14
2022-11-20T04:55:46.996Z,1.14
2022-11-20T04:58:14.644Z,1.08
2022-11-20T05:00:42.148Z,1.04
2022-11-20T05:03:09.612Z,1.06
2022-11-20T05:05:37.103Z,1.04
2022-11-20T05:08:06.225Z,1.03
2022-11-20T05:10:33.455Z,1.01
2022-11-20T05:13:00.989Z,1.02
2022-11-20T05:15:28.148Z,1.06
2022-11-20T05:17:55.056Z,1.05
2022-11-20T05:20:22.596Z,1.05
2022-11-20T05:22:50.103Z,0.98
2022-11-20T05:25:18.688Z,0.98
2022-11-20T05:27:46.098Z,0.99
2022-11-20T05:30:14.902Z,0.97
2022-11-20T05:32:41.839Z,0.98
2022-11-20T05:35:08.927Z,0.97
2022-11-20T05:37:35.957Z,0.99
2022-11-20T05:40:02.876Z,0.98
2022-11-20T05:42:33.141Z,0.98
2022-11-20T05:45:01.628Z,1.00
2022-11-20T05:47:32.493Z,1.04
2022-11-20T05:50:00.166Z,1.05
2022-11-20T05:52:29.954Z,1.05
2022-11-20T05:54:57.741Z,1.03
2022-11-20T05:57:24.717Z,1.03
2022-11-20T05:59:54.048Z,1.00
2022-11-20T06:02:21.331Z,1.00
2022-11-20T06:04:49.145Z,0.95
2022-11-20T06:07:16.819Z,0.94
2022-11-20T06:09:44.495Z,0.97
2022-11-20T06:12:11.664Z,0.97
2022-11-20T06:14:39.207Z,0.98
2022-11-20T06:17:08.329Z,1.03
2022-11-20T06:19:36.172Z,1.03
2022-11-20T06:22:03.713Z,1.05
2022-11-20T06:24:31.213Z,1.08
2022-11-20T06:26:59.156Z,1.09
2022-11-20T06:29:30.206Z,1.06
2022-11-20T06:32:01.119Z,1.06
2022-11-20T06:34:30.258Z,1.07
2022-11-20T06:36:57.457Z,1.10
2022-11-20T06:39:24.960Z,1.11
2022-11-20T06:41:58.359Z,1.08
2022-11-20T06:44:26.432Z,1.08
2022-11-20T06:46:53.949Z,1.13
2022-11-20T06:49:21.433Z,1.14
2022-11-20T06:51:50.751Z,1.15
2022-11-20T06:54:18.429Z,1.17
2022-11-20T06:56:48.159Z,1.17
2022-11-20T06:59:15.427Z,1.19
2022-11-20T07:01:42.448Z,1.18
2022-11-20T07:04:09.481Z,1.16
2022-11-20T07:06:36.511Z,1.19
2022-11-20T07:09:09.890Z,1.20
2022-11-20T07:11:39.517Z,1.21
2022-11-20T07:14:06.559Z,1.25
2022-11-20T07:16:33.614Z,1.29
2022-11-20T07:19:00.837Z,1.33
2022-11-20T07:21:27.877Z,1.36
2022-11-20T07:23:54.924Z,1.39
2022-11-20T07:26:23.336Z,1.40
2022-11-20T07:28:50.719Z,1.45
2022-11-20T07:31:19.648Z,1.47
2022-11-20T07:33:47.672Z,1.46
2022-11-20T07:36:15.191Z,1.38
2022-11-20T07:38:42.393Z,1.38
2022-11-20T07:41:09.616Z,1.41
2022-11-20T07:43:41.256Z,1.43
2022-11-20T07:46:09.122Z,1.50
2022-11-20T07:48:36.269Z,1.53
2022-11-20T07:51:04.288Z,1.52
2022-11-20T07:53:31.461Z,1.58
2022-11-20T07:56:01.106Z,1.59
2022-11-20T07:58:29.940Z,1.63
2022-11-20T08:00:59.109Z,1.66
2022-11-20T08:03:26.244Z,1.70
2022-11-20T08:05:53.612Z,1.68
2022-11-20T08:08:21.028Z,1.69
2022-11-20T08:10:48.205Z,1.74
2022-11-20T08:13:15.525Z,1.73
2022-11-20T08:15:48.645Z,1.75
2022-11-20T08:18:33.403Z,1.78
2022-11-20T08:21:03.848Z,1.86
2022-11-20T08:23:31.370Z,1.90
2022-11-20T08:25:58.738Z,1.89
2022-11-20T08:28:25.744Z,1.94
2022-11-20T08:30:59.041Z,1.93
2022-11-20T08:33:27.881Z,1.95
2022-11-20T08:35:54.801Z,1.98
2022-11-20T08:38:21.740Z,1.96
2022-11-20T08:40:48.824Z,1.97
2022-11-20T08:43:16.333Z,2.02
2022-11-20T08:45:43.850Z,2.04
2022-11-20T08:48:11.362Z,1.98
2022-11-20T08:50:40.485Z,1.96
2022-11-20T08:53:08.103Z,2.05
2022-11-20T08:55:35.256Z,2.06
2022-11-20T08:58:04.958Z,2.06
2022-11-20T09:00:32.015Z,2.02
2022-11-20T09:02:59.087Z,2.01
2022-11-20T09:05:26.256Z,2.05
2022-11-20T09:07:57.275Z,2.14
2022-11-20T09:10:25.618Z,2.17
2022-11-20T09:12:53.310Z,2.21
2022-11-20T09:15:20.574Z,2.21
2022-11-20T09:17:53.124Z,2.24
2022-11-20T09:20:21.389Z,2.28
2022-11-20T09:22:48.797Z,2.33
2022-11-20T09:25:17.620Z,2.34
2022-11-20T09:27:45.449Z,2.39
2022-11-20T09:30:13.901Z,2.43
2022-11-20T09:32:42.429Z,2.46
2022-11-20T09:35:10.920Z,2.46
2022-11-20T09:37:38.408Z,2.51
2022-11-20T09:40:06.574Z,2.55
2022-11-20T09:42:41.771Z,2.59
2022-11-20T09:45:23.039Z,2.61
2022-11-20T09:48:05.770Z,2.61
2022-11-20T09:50:37.515Z,2.68
2022-11-20T09:53:18.882Z,2.71
2022-11-20T09:55:47.748Z,2.77
2022-11-20T09:58:24.398Z,2.80
2022-11-20T10:00:54.537Z,2.81
2022-11-20T10:03:36.002Z,2.88
2022-11-20T10:06:06.582Z,2.89
2022-11-20T10:08:41.331Z,2.92
2022-11-20T10:11:16.440Z,2.99
2022-11-20T10:13:54.733Z,3.03
2022-11-20T10:16:39.517Z,3.12
2022-11-20T10:19:25.800Z,3.19
2022-11-20T10:22:05.860Z,3.21
2022-11-20T10:24:44.683Z,3.22
2022-11-20T10:27:38.956Z,3.26
2022-11-20T10:30:12.756Z,3.34
2022-11-20T10:32:42.766Z,3.39
2022-11-20T10:35:21.884Z,3.46
2022-11-20T10:37:56.640Z,3.50
2022-11-20T10:40:30.698Z,3.54
2022-11-20T10:43:01.104Z,3.61
2022-11-20T10:45:41.439Z,3.66
2022-11-20T10:48:20.213Z,3.70
2022-11-20T10:51:10.165Z,3.71
2022-11-20T10:53:50.607Z,3.71
2022-11-20T10:56:22.340Z,3.75
2022-11-20T10:59:02.027Z,3.77
2022-11-20T11:01:31.492Z,3.84
2022-11-20T11:03:59.814Z,3.92
2022-11-20T11:06:35.658Z,4.01
2022-11-20T11:09:10.647Z,4.06
2022-11-20T11:11:39.993Z,4.08
2022-11-20T11:14:08.225Z,4.12
2022-11-20T11:16:37.103Z,4.15
2022-11-20T11:19:11.785Z,4.17
2022-11-20T11:21:39.024Z,4.19
2022-11-20T11:24:34.702Z,4.21
2022-11-20T11:26:58.208Z,4.27
2022-11-20T11:29:25.743Z,4.27
2022-11-20T11:32:05.273Z,4.32
2022-11-20T11:34:32.467Z,4.29
2022-11-20T11:37:01.894Z,4.37
2022-11-20T11:39:36.358Z,4.40
2022-11-20T11:42:03.637Z,4.45
2022-11-20T11:44:33.305Z,4.52
2022-11-20T11:47:03.256Z,4.54
2022-11-20T11:49:30.798Z,4.59
2022-11-20T11:52:12.411Z,4.67
2022-11-20T11:54:47.211Z,4.75
2022-11-20T11:57:21.540Z,4.73
2022-11-20T12:00:03.197Z,4.73
2022-11-20T12:02:38.225Z,4.78
2022-11-20T12:05:17.960Z,4.87
2022-11-20T12:07:48.691Z,4.86
2022-11-20T12:10:24.267Z,4.92
2022-11-20T12:12:56.546Z,4.99
2022-11-20T12:15:33.821Z,5.10
2022-11-20T12:18:03.199Z,5.18
2022-11-20T12:20:36.575Z,5.27
2022-11-20T12:23:09.065Z,5.35
2022-11-20T12:25:38.726Z,5.40
2022-11-20T12:28:41.567Z,5.43
2022-11-20T12:31:29.188Z,5.44
2022-11-20T12:34:14.590Z,5.53
2022-11-20T12:36:51.355Z,5.57
2022-11-20T12:39:33.281Z,5.61
2022-11-20T12:42:16.005Z,5.70
2022-11-20T12:45:06.749Z,5.72
2022-11-20T12:47:48.343Z,5.77
2022-11-20T12:50:32.531Z,5.82
2022-11-20T12:53:06.549Z,5.80
2022-11-20T12:55:42.702Z,5.88
2022-11-20T12:58:14.946Z,5.90
2022-11-20T13:00:56.526Z,5.97
2022-11-20T13:03:43.957Z,6.01
2022-11-20T13:06:17.133Z,6.03
2022-11-20T13:08:52.286Z,6.10
2022-11-20T13:11:26.965Z,6.08
2022-11-20T13:14:11.048Z,6.14
2022-11-20T13:16:43.216Z,6.11
2022-11-20T13:19:15.505Z,6.19
2022-11-20T13:21:45.917Z,6.24
2022-11-20T13:24:26.267Z,6.32
2022-11-20T13:27:19.208Z,6.35
2022-11-20T13:29:48.339Z,6.34
2022-11-20T13:32:18.416Z,6.35
2022-11-20T13:34:57.481Z,6.35
2022-11-20T13:37:32.854Z,6.34
2022-11-20T13:40:23.476Z,6.32
2022-11-20T13:43:02.101Z,6.33
2022-11-20T13:45:32.238Z,6.30
2022-11-20T13:48:03.979Z,6.26
2022-11-20T13:50:52.572Z,6.22
2022-11-20T13:53:43.230Z,6.19
2022-11-20T13:56:17.863Z,6.12
2022-11-20T13:58:59.318Z,6.14
2022-11-20T14:01:32.620Z,6.19
2022-11-20T14:04:07.464Z,6.14
2022-11-20T14:06:42.645Z,6.16
2022-11-20T14:09:15.869Z,6.14
2022-11-20T14:11:48.957Z,6.14
2022-11-20T14:14:20.632Z,6.12
2022-11-20T14:16:50.338Z,6.11
2022-11-20T14:19:31.848Z,6.09
2022-11-20T14:22:13.179Z,6.10
2022-11-20T14:24:42.128Z,6.11
2022-11-20T14:27:15.648Z,6.08
2022-11-20T14:29:45.610Z,6.02
2022-11-20T14:32:16.267Z,5.99
2022-11-20T14:34:47.143Z,5.97
2022-11-20T14:37:21.273Z,5.92
2022-11-20T14:39:53.902Z,5.87
2022-11-20T14:42:24.214Z,5.82
2022-11-20T14:44:53.827Z,5.80
2022-11-20T14:47:26.325Z,5.68
2022-11-20T14:49:55.929Z,5.59
2022-11-20T14:52:26.100Z,5.55
2022-11-20T14:54:56.501Z,5.52
2022-11-20T14:57:26.571Z,5.49
2022-11-20T15:00:06.421Z,5.44
2022-11-20T15:02:34.313Z,5.43
2022-11-20T15:05:03.532Z,5.37
2022-11-20T15:07:32.911Z,5.35
2022-11-20T15:10:24.520Z,5.25
2022-11-20T15:12:54.734Z,5.18
2022-11-20T15:15:30.616Z,5.13
2022-11-20T15:17:58.492Z,5.05
2022-11-20T15:20:29.626Z,4.98
2022-11-20T15:22:58.099Z,4.89
2022-11-20T15:25:27.257Z,4.84
2022-11-20T15:27:58.111Z,4.80
2022-11-20T15:30:26.414Z,4.71
2022-11-20T15:32:54.589Z,4.65
2022-11-20T15:35:22.697Z,4.62
2022-11-20T15:37:50.176Z,4.52
2022-11-20T15:40:17.733Z,4.43
2022-11-20T15:42:46.789Z,4.39
2022-11-20T15:45:15.595Z,4.35
2022-11-20T15:47:44.006Z,4.29
2022-11-20T15:50:18.940Z,4.26
2022-11-20T15:52:46.789Z,4.23
2022-11-20T15:55:14.235Z,4.16
2022-11-20T15:57:42.106Z,4.12
2022-11-20T16:00:12.869Z,4.04
2022-11-20T16:02:40.437Z,4.01
2022-11-20T16:05:12.361Z,3.91
2022-11-20T16:07:39.830Z,3.84
2022-11-20T16:10:08.343Z,3.84
2022-11-20T16:12:36.179Z,3.80
2022-11-20T16:15:08.235Z,3.83
2022-11-20T16:17:43.112Z,3.83
2022-11-20T16:20:13.739Z,3.86
2022-11-20T16:22:41.610Z,3.89
2022-11-20T16:25:09.757Z,3.91
2022-11-20T16:27:38.180Z,3.95
2022-11-20T16:30:06.245Z,3.93
2022-11-20T16:32:33.894Z,3.93
2022-11-20T16:35:02.566Z,3.91
2022-11-20T16:37:30.746Z,3.88
2022-11-20T16:39:58.395Z,3.82
2022-11-20T16:42:32.516Z,3.80
2022-11-20T16:45:00.972Z,3.83
2022-11-20T16:47:28.625Z,3.85
2022-11-20T16:49:56.992Z,3.81
2022-11-20T16:52:26.923Z,3.78
2022-11-20T16:54:55.347Z,3.74
2022-11-20T16:57:23.559Z,3.71
2022-11-20T16:59:51.549Z,3.69
2022-11-20T17:02:19.052Z,3.66
2022-11-20T17:04:46.575Z,3.61
2022-11-20T17:07:13.995Z,3.56
2022-11-20T17:09:43.429Z,3.54
2022-11-20T17:12:12.459Z,3.56
2022-11-20T17:14:40.045Z,3.59
2022-11-20T17:17:08.175Z,3.61
2022-11-20T17:19:36.776Z,3.64
2022-11-20T17:22:04.337Z,3.68
2022-11-20T17:24:32.345Z,3.71
2022-11-20T17:27:02.666Z,3.70
2022-11-20T17:29:30.738Z,3.69
2022-11-20T17:31:58.743Z,3.68
2022-11-20T17:34:26.364Z,3.68
2022-11-20T17:36:54.797Z,3.68
2022-11-20T17:39:23.726Z,3.66
2022-11-20T17:41:50.924Z,3.67
2022-11-20T17:44:19.907Z,3.64
2022-11-20T17:46:48.471Z,3.65
2022-11-20T17:49:22.766Z,3.65
2022-11-20T17:51:52.073Z,3.66
2022-11-20T17:54:20.892Z,3.68
2022-11-20T17:56:48.918Z,3.71
2022-11-20T17:59:17.251Z,3.69
2022-11-20T18:01:46.995Z,3.73
2022-11-20T18:04:15.506Z,3.72
2022-11-20T18:06:44.849Z,3.76
2022-11-20T18:09:13.421Z,3.72
2022-11-20T18:11:43.380Z,3.66
2022-11-20T18:14:13.621Z,3.66
2022-11-20T18:16:43.585Z,3.68
2022-11-20T18:19:15.683Z,3.63
2022-11-20T18:21:44.168Z,3.62
2022-11-20T18:24:12.204Z,3.66
2022-11-20T18:26:44.249Z,3.64
2022-11-20T18:29:13.589Z,3.63
2022-11-20T18:31:42.606Z,3.68
2022-11-20T18:34:12.649Z,3.64
2022-11-20T18:36:40.313Z,3.66
2022-11-20T18:39:07.747Z,3.65
2022-11-20T18:41:35.268Z,3.67
2022-11-20T18:44:04.031Z,3.64
2022-11-20T18:46:31.448Z,3.63
2022-11-20T18:48:59.072Z,3.65
2022-11-20T18:51:28.758Z,3.62
2022-11-20T18:53:56.316Z,3.67
2022-11-20T18:56:24.643Z,3.67
2022-11-20T18:58:52.142Z,3.66
2022-11-20T19:01:20.426Z,3.70
2022-11-20T19:03:47.962Z,3.71
2022-11-20T19:06:16.852Z,3.66
2022-11-20T19:08:50.492Z,3.63
2022-11-20T19:11:19.046Z,3.65
2022-11-20T19:13:48.452Z,3.66
2022-11-20T19:16:18.982Z,3.70
2022-11-20T19:18:56.451Z,3.70
2022-11-20T19:21:26.109Z,3.71
2022-11-20T19:23:57.472Z,3.70
2022-11-20T19:26:35.617Z,3.65
2022-11-20T19:29:03.380Z,3.61
2022-11-20T19:31:34.260Z,3.59
2022-11-20T19:34:04.349Z,3.58
2022-11-20T19:36:33.977Z,3.55
2022-11-20T19:39:04.096Z,3.62
2022-11-20T19:41:32.007Z,3.56
2022-11-20T19:44:00.768Z,3.51
2022-11-20T19:46:30.596Z,3.48
2022-11-20T19:48:58.801Z,3.50
2022-11-20T19:51:28.992Z,3.51
2022-11-20T19:53:57.119Z,3.51
2022-11-20T19:56:27.682Z,3.53
2022-11-20T19:58:57.041Z,3.54
2022-11-20T20:01:26.715Z,3.58
2022-11-20T20:03:55.648Z,3.58
2022-11-20T20:06:25.531Z,3.63
2022-11-20T20:08:56.523Z,3.65
2022-11-20T20:11:31.027Z,3.64
2022-11-20T20:14:01.614Z,3.64
2022-11-20T20:16:28.706Z,3.59
2022-11-20T20:18:57.429Z,3.61
2022-11-20T20:21:26.599Z,3.54
2022-11-20T20:23:55.446Z,3.49
2022-11-20T20:26:23.864Z,3.51
2022-11-20T20:28:53.209Z,3.49
2022-11-20T20:31:23.539Z,3.48
2022-11-20T20:33:51.315Z,3.43
2022-11-20T20:36:20.982Z,3.42
2022-11-20T20:38:49.160Z,3.40
2022-11-20T20:41:20.283Z,3.45
2022-11-20T20:43:48.237Z,3.48
2022-11-20T20:46:17.158Z,3.48
2022-11-20T20:48:47.115Z,3.50
2022-11-20T20:51:19.394Z,3.52
2022-11-20T20:53:47.245Z,3.55
2022-11-20T20:56:15.529Z,3.57
2022-11-20T20:58:43.368Z,3.61
2022-11-20T21:01:13.693Z,3.57
2022-11-20T21:03:44.484Z,3.62
2022-11-20T21:06:14.110Z,3.62
2022-11-20T21:08:45.785Z,3.65
2022-11-20T21:11:15.649Z,3.66
2022-11-20T21:13:45.144Z,3.65
2022-11-20T21:16:13.130Z,3.67
2022-11-20T21:18:40.233Z,3.67
2022-11-20T21:21:12.645Z,3.65
2022-11-20T21:23:41.456Z,3.66
2022-11-20T21:26:10.221Z,3.67
2022-11-20T21:28:38.792Z,3.65
2022-11-20T21:31:08.026Z,3.64
2022-11-20T21:33:40.312Z,3.61
2022-11-20T21:36:10.942Z,3.61
2022-11-20T21:38:38.667Z,3.57
2022-11-20T21:41:08.188Z,3.54
2022-11-20T21:43:35.750Z,3.51
2022-11-20T21:46:03.861Z,3.49
2022-11-20T21:48:31.722Z,3.45
2022-11-20T21:51:06.946Z,3.49
2022-11-20T21:53:36.086Z,3.53
2022-11-20T21:56:04.552Z,3.61
2022-11-20T21:58:31.792Z,3.58
2022-11-20T22:00:58.820Z,3.59
2022-11-20T22:03:26.091Z,3.61
2022-11-20T22:05:54.448Z,3.63
2022-11-20T22:08:22.303Z,3.62
2022-11-20T22:10:59.698Z,3.64
2022-11-20T22:13:28.493Z,3.62
2022-11-20T22:16:01.798Z,3.65
2022-11-20T22:18:29.263Z,3.68
2022-11-20T22:20:56.240Z,3.63
2022-11-20T22:23:23.415Z,3.57
2022-11-20T22:25:50.873Z,3.58
2022-11-20T22:28:19.399Z,3.59
2022-11-20T22:30:46.889Z,3.56
2022-11-20T22:33:14.405Z,3.59
2022-11-20T22:35:41.950Z,3.61
2022-11-20T22:38:09.463Z,3.64
2022-11-20T22:40:36.965Z,3.58
2022-11-20T22:43:04.844Z,3.51
2022-11-20T22:45:33.294Z,3.54
2022-11-20T22:48:00.828Z,3.53
2022-11-20T22:50:28.332Z,3.58
2022-11-20T22:52:55.852Z,3.55
2022-11-20T22:55:22.768Z,3.54
2022-11-20T22:57:49.737Z,3.54
2022-11-20T23:00:18.748Z,3.52
2022-11-20T23:02:47.838Z,3.54
2022-11-20T23:05:15.369Z,3.55
2022-11-20T23:07:42.948Z,3.57
2022-11-20T23:10:10.560Z,3.59
2022-11-20T23:12:37.740Z,3.54
2022-11-20T23:15:05.637Z,3.47
2022-11-20T23:17:32.618Z,3.41
2022-11-20T23:20:01.112Z,3.36
2022-11-20T23:22:28.063Z,3.29
2022-11-20T23:24:55.130Z,3.21
2022-11-20T23:27:26.024Z,3.15
2022-11-20T23:29:55.410Z,3.13
2022-11-20T23:32:22.323Z,3.04
2022-11-20T23:34:49.484Z,2.98
2022-11-20T23:37:18.553Z,2.89
2022-11-20T23:39:45.792Z,2.83
2022-11-20T23:42:12.813Z,2.73
2022-11-20T23:44:39.869Z,2.71
2022-11-20T23:47:07.143Z,2.62
2022-11-20T23:49:34.149Z,2.56
2022-11-20T23:52:01.151Z,2.45
2022-11-20T23:54:29.730Z,2.36
2022-11-20T23:56:56.856Z,2.24
2022-11-20T23:59:23.891Z,2.11
